Time;durP1;ratioP1;P1;durP2;ratioP2;P2;SDS_P1;SDS_P2;PMS_P1;PMS_P2;Temp;Humidity;BMP_temperature;BMP_pressure;BME280_temperature;BME280_humidity;BME280_pressure;Samples;Min_cycle;Max_cycle;Signal;HPM_P1;HPM_P2
2023/03/25 00:00:47;;;;;;;;;;;;;;;26.76;39.38;93888.34;5012531;28;9155;-56
2023/03/25 00:03:37;;;;;;;;;;;;;;;26.73;39.41;93878.38;4994174;28;7262;-56
2023/03/25 00:06:05;;;;;;;;;;;;;;;26.75;39.41;93878.59;4993227;28;7081;-55
2023/03/25 00:08:32;;;;;;;;;;;;;;;26.74;39.38;93874.34;4992450;28;9003;-56
2023/03/25 00:11:05;;;;;;;;;;;;;;;26.74;39.53;93868.81;4995115;28;7070;-56
2023/03/25 00:13:32;;;;;;;;;;;;;;;26.73;39.54;93872.88;4995518;28;7264;-56
2023/03/25 00:16:01;;;;;;;;;;;;;;;26.70;39.57;93884.94;4995331;28;9029;-56
2023/03/25 00:18:47;;;;;;;;;;;;;;;26.72;39.08;93909.97;4992782;28;10315;-55
2023/03/25 00:21:14;;;;;;;;;;;;;;;26.71;39.04;93923.00;5004302;28;9141;-56
2023/03/25 00:23:54;;;;;;;;;;;;;;;26.72;39.29;93924.50;5011700;28;7333;-56
2023/03/25 00:26:21;;;;;;;;;;;;;;;26.69;39.57;93922.06;4996532;28;7258;-56
2023/03/25 00:28:47;;;;;;;;;;;;;;;26.72;39.13;93912.72;5018558;28;9115;-56
2023/03/25 00:31:13;;;;;;;;;;;;;;;26.71;39.59;93908.47;5000616;28;7031;-56
2023/03/25 00:33:56;;;;;;;;;;;;;;;26.68;38.94;93915.81;4993494;28;7050;-56
2023/03/25 00:36:23;;;;;;;;;;;;;;;26.67;39.11;93916.31;5012322;28;9055;-56
2023/03/25 00:39:07;;;;;;;;;;;;;;;26.68;39.81;93943.41;4993774;28;7699;-56
2023/03/25 00:41:40;;;;;;;;;;;;;;;26.68;39.36;93946.16;5004918;28;9232;-56
2023/03/25 00:44:16;;;;;;;;;;;;;;;26.67;39.71;93936.38;5006534;28;7280;-56
2023/03/25 00:46:42;;;;;;;;;;;;;;;26.68;39.55;93931.63;5003524;28;7170;-56
2023/03/25 00:49:11;;;;;;;;;;;;;;;26.67;39.51;93919.09;4984131;28;7281;-56
2023/03/25 00:51:38;;;;;;;;;;;;;;;26.68;39.35;93937.13;4985681;28;7637;-56
2023/03/25 00:54:15;;;;;;;;;;;;;;;26.67;39.46;93941.91;5011565;28;7720;-56
2023/03/25 00:56:45;;;;;;;;;;;;;;;26.68;39.18;93953.69;5010425;28;7264;-56
2023/03/25 00:59:14;;;;;;;;;;;;;;;26.67;39.17;93952.19;5008508;28;7043;-56
2023/03/25 01:01:42;;;;;;;;;;;;;;;26.68;39.35;93950.94;4996028;28;7259;-56
2023/03/25 01:04:15;;;;;;;;;;;;;;;26.68;39.50;93953.69;5012379;28;9269;-56
2023/03/25 01:06:43;;;;;;;;;;;;;;;26.68;38.74;93948.91;5010998;28;7208;-56
2023/03/25 01:09:16;;;;;;;;;;;;;;;26.67;39.10;93949.44;4999169;28;7387;-56
2023/03/25 01:11:49;;;;;;;;;;;;;;;26.67;39.46;93960.47;4993161;28;9643;-56
2023/03/25 01:14:19;;;;;;;;;;;;;;;26.66;39.38;93959.00;5010477;28;9391;-56
2023/03/25 01:16:52;;;;;;;;;;;;;;;26.69;39.28;93949.63;4995737;28;9965;-56
2023/03/25 01:19:18;;;;;;;;;;;;;;;26.66;39.47;93950.72;4970581;28;8640;-56
2023/03/25 01:22:33;;;;;;;;;;;;;;;26.68;39.26;93959.19;5012624;28;9302;-56
2023/03/25 01:25:01;;;;;;;;;;;;;;;26.67;39.19;93952.94;5005501;28;7233;-56
2023/03/25 01:27:32;;;;;;;;;;;;;;;26.67;39.18;93952.94;5006255;28;7263;-56
2023/03/25 01:29:59;;;;;;;;;;;;;;;26.64;39.55;93948.47;4995618;28;7285;-56
2023/03/25 01:32:27;;;;;;;;;;;;;;;26.65;38.89;93938.94;4993584;28;7327;-56
2023/03/25 01:34:56;;;;;;;;;;;;;;;26.65;38.93;93943.69;5011109;28;7037;-56
2023/03/25 01:37:24;;;;;;;;;;;;;;;26.62;39.50;93939.25;4993107;28;9708;-56
2023/03/25 01:39:55;;;;;;;;;;;;;;;26.61;39.03;93941.25;5007334;28;9484;-56
2023/03/25 01:42:20;;;;;;;;;;;;;;;26.63;39.11;93955.25;4990407;28;7036;-55
2023/03/25 01:44:46;;;;;;;;;;;;;;;26.61;39.31;93933.00;4993377;28;7195;-55
2023/03/25 01:47:13;;;;;;;;;;;;;;;26.63;39.41;93940.72;5008455;28;7413;-56
2023/03/25 01:49:45;;;;;;;;;;;;;;;26.63;39.36;93926.94;4998880;28;8251;-56
2023/03/25 01:52:17;;;;;;;;;;;;;;;26.61;40.04;93921.19;5018140;28;9054;-56
2023/03/25 01:54:54;;;;;;;;;;;;;;;26.62;39.40;93911.66;4993490;28;7053;-56
2023/03/25 01:57:24;;;;;;;;;;;;;;;26.60;39.29;93919.72;5009212;28;9045;-56
2023/03/25 01:59:54;;;;;;;;;;;;;;;26.60;39.36;93909.41;4999105;28;7895;-56
2023/03/25 02:02:35;;;;;;;;;;;;;;;26.61;39.41;93910.16;4994695;28;7212;-56
2023/03/25 02:05:10;;;;;;;;;;;;;;;26.62;39.30;93906.16;4989093;28;7480;-56
2023/03/25 02:07:41;;;;;;;;;;;;;;;26.61;39.25;93910.16;4994530;28;7206;-56
2023/03/25 02:10:11;;;;;;;;;;;;;;;26.61;39.70;93897.13;4992164;28;7027;-56
2023/03/25 02:12:37;;;;;;;;;;;;;;;26.62;39.01;93895.84;5008878;28;7336;-56
2023/03/25 02:15:07;;;;;;;;;;;;;;;26.61;39.77;93899.88;4994572;28;7301;-56
2023/03/25 02:17:39;;;;;;;;;;;;;;;26.61;39.91;93890.84;5006469;28;7764;-56
2023/03/25 02:20:30;;;;;;;;;;;;;;;26.61;39.23;93893.63;5013979;28;8225;-56
2023/03/25 02:23:41;;;;;;;;;;;;;;;26.61;38.94;93893.63;5012321;28;7040;-55
2023/03/25 02:26:20;;;;;;;;;;;;;;;26.59;39.75;93885.88;5009014;28;9276;-56
2023/03/25 02:29:01;;;;;;;;;;;;;;;26.59;39.13;93885.88;5013543;28;8756;-56
2023/03/25 02:32:03;;;;;;;;;;;;;;;26.58;39.79;93878.13;5005809;28;9225;-56
2023/03/25 02:35:16;;;;;;;;;;;;;;;26.57;39.71;93876.66;4991598;28;7262;-56
2023/03/25 02:38:14;;;;;;;;;;;;;;;26.57;39.01;93871.13;4939220;28;9073;-56
2023/03/25 02:41:05;;;;;;;;;;;;;;;26.56;39.81;93873.13;4954905;28;7481;-55
2023/03/25 02:43:53;;;;;;;;;;;;;;;26.55;39.62;93871.66;4964100;28;7129;-56
2023/03/25 02:46:30;;;;;;;;;;;;;;;26.53;39.93;93865.19;4952988;28;7493;-56
2023/03/25 02:49:00;;;;;;;;;;;;;;;26.56;39.12;93864.88;4959602;28;7867;-56
2023/03/25 02:51:43;;;;;;;;;;;;;;;26.56;39.15;93862.09;4959820;28;9160;-56
2023/03/25 02:54:15;;;;;;;;;;;;;;;26.56;39.58;93859.34;4955523;28;8919;-56
2023/03/25 02:56:46;;;;;;;;;;;;;;;26.58;39.30;93870.59;4956567;28;7146;-56
2023/03/25 02:59:32;;;;;;;;;;;;;;;26.56;39.85;93878.66;4950782;28;7262;-56
2023/03/25 03:02:07;;;;;;;;;;;;;;;26.55;39.49;93884.72;4937147;28;7814;-56
2023/03/25 03:04:51;;;;;;;;;;;;;;;26.54;39.78;93883.97;4968589;28;7558;-56
2023/03/25 03:07:26;;;;;;;;;;;;;;;26.54;39.18;93889.47;4952654;28;7712;-56
2023/03/25 03:10:05;;;;;;;;;;;;;;;26.56;39.06;93894.44;4955624;28;7313;-56
2023/03/25 03:12:39;;;;;;;;;;;;;;;26.56;39.53;93897.22;4965099;28;9311;-56
2023/03/25 03:15:32;;;;;;;;;;;;;;;26.56;39.63;93899.97;5014378;28;7204;-56
2023/03/25 03:18:33;;;;;;;;;;;;;;;26.57;39.55;93901.47;4995823;28;9259;-55
2023/03/25 03:21:13;;;;;;;;;;;;;;;26.57;39.47;93909.75;5002836;28;7113;-56
2023/03/25 03:24:10;;;;;;;;;;;;;;;26.54;39.51;93917.06;4996448;28;8771;-56
2023/03/25 03:27:07;;;;;;;;;;;;;;;26.54;39.49;93928.09;5005424;28;7080;-56
2023/03/25 03:29:43;;;;;;;;;;;;;;;26.55;39.80;93928.84;5009948;28;7293;-56
2023/03/25 03:32:17;;;;;;;;;;;;;;;26.56;40.03;93924.78;4998305;28;7166;-56
2023/03/25 03:34:56;;;;;;;;;;;;;;;26.57;39.15;93934.56;5010521;28;10085;-56
2023/03/25 03:37:47;;;;;;;;;;;;;;;26.55;38.98;93957.16;4994788;28;7191;-56
2023/03/25 03:40:22;;;;;;;;;;;;;;;26.54;39.74;93950.16;4984913;28;7410;-56
2023/03/25 03:43:02;;;;;;;;;;;;;;;26.57;39.31;93953.88;5007422;28;8723;-56
2023/03/25 03:45:50;;;;;;;;;;;;;;;26.58;39.16;93961.63;4992838;28;7233;-56
2023/03/25 03:48:37;;;;;;;;;;;;;;;26.60;39.12;93961.09;5005223;28;7390;-56
2023/03/25 03:51:18;;;;;;;;;;;;;;;26.59;39.44;93979.66;4991723;28;9053;-56
2023/03/25 03:53:53;;;;;;;;;;;;;;;26.62;39.20;93977.88;4998029;28;7409;-56
2023/03/25 03:56:35;;;;;;;;;;;;;;;26.64;39.11;93997.41;5011081;28;9024;-56
2023/03/25 03:59:33;;;;;;;;;;;;;;;26.65;38.81;94001.63;5012164;28;7217;-56
2023/03/25 04:02:27;;;;;;;;;;;;;;;26.65;38.81;93999.63;4986503;28;9301;-56
2023/03/25 04:04:53;;;;;;;;;;;;;;;26.65;39.04;94010.66;5009893;28;9046;-56
2023/03/25 04:07:37;;;;;;;;;;;;;;;26.66;39.11;94009.41;4999448;28;7047;-55
2023/03/25 04:10:28;;;;;;;;;;;;;;;26.68;39.50;94030.94;4988015;28;9459;-56
2023/03/25 04:13:04;;;;;;;;;;;;;;;26.66;39.25;94036.97;5008171;28;9874;-56
2023/03/25 04:15:37;;;;;;;;;;;;;;;26.67;38.75;94035.69;5002626;28;9344;-56
2023/03/25 04:18:05;;;;;;;;;;;;;;;26.63;39.11;94029.00;5004130;28;7158;-55
2023/03/25 04:20:48;;;;;;;;;;;;;;;26.60;39.39;94024.56;5004585;28;8551;-56
2023/03/25 04:23:24;;;;;;;;;;;;;;;26.60;39.20;94025.28;4997995;28;9704;-56
2023/03/25 04:26:01;;;;;;;;;;;;;;;26.55;39.06;94019.84;5014454;28;7332;-56
2023/03/25 04:28:43;;;;;;;;;;;;;;;26.58;39.27;94027.81;4997168;28;7454;-55
2023/03/25 04:31:21;;;;;;;;;;;;;;;26.57;39.51;94020.06;5001452;28;8701;-56
2023/03/25 04:34:01;;;;;;;;;;;;;;;26.58;39.42;94010.50;4994686;28;9192;-56
2023/03/25 04:36:36;;;;;;;;;;;;;;;26.57;38.97;94009.78;4997558;28;7248;-55
2023/03/25 04:39:16;;;;;;;;;;;;;;;26.57;39.67;94015.31;5015032;28;9083;-55
2023/03/25 04:41:55;;;;;;;;;;;;;;;26.54;39.33;94012.84;5013692;28;8947;-56
2023/03/25 04:44:37;;;;;;;;;;;;;;;26.54;39.66;94021.13;4994203;28;9222;-56
2023/03/25 04:47:24;;;;;;;;;;;;;;;26.55;38.93;94022.63;4997090;28;7354;-56
2023/03/25 04:49:50;;;;;;;;;;;;;;;26.55;39.70;94023.38;4996570;28;7038;-56
2023/03/25 04:52:30;;;;;;;;;;;;;;;26.52;39.04;94024.41;5012872;28;7981;-56
2023/03/25 04:54:57;;;;;;;;;;;;;;;26.54;39.31;94015.59;5011959;28;7048;-56
2023/03/25 04:57:34;;;;;;;;;;;;;;;26.55;39.48;94008.81;5013789;28;7528;-56
2023/03/25 05:00:32;;;;;;;;;;;;;;;26.55;39.42;93997.78;5013727;28;8823;-56
2023/03/25 05:03:10;;;;;;;;;;;;;;;26.54;39.35;93993.53;4918621;29;9220;-56
2023/03/25 05:05:38;;;;;;;;;;;;;;;26.55;39.05;93989.53;4918083;29;9301;-56
2023/03/25 05:08:04;;;;;;;;;;;;;;;26.55;39.53;93989.53;4933819;29;7649;-56
2023/03/25 05:10:33;;;;;;;;;;;;;;;26.55;39.10;93981.25;4923967;29;7072;-56
2023/03/25 05:13:12;;;;;;;;;;;;;;;26.49;39.13;93962.00;4924208;29;8697;-56
2023/03/25 05:16:08;;;;;;;;;;;;;;;26.54;39.55;93963.19;4917687;29;8762;-56
2023/03/25 05:18:39;;;;;;;;;;;;;;;26.51;39.44;93969.78;4911667;29;7250;-56
2023/03/25 05:21:30;;;;;;;;;;;;;;;26.51;39.63;93970.50;4926651;29;9029;-56
2023/03/25 05:24:12;;;;;;;;;;;;;;;26.48;39.43;93981.84;4912263;29;7259;-56
2023/03/25 05:26:50;;;;;;;;;;;;;;;26.46;38.96;93976.13;4927152;29;7265;-56
2023/03/25 05:29:25;;;;;;;;;;;;;;;26.47;39.20;93972.09;4929894;29;8939;-56
2023/03/25 05:32:01;;;;;;;;;;;;;;;26.47;38.73;93966.59;4928543;29;7023;-56
2023/03/25 05:34:30;;;;;;;;;;;;;;;26.38;39.13;93953.19;4933736;29;7311;-56
2023/03/25 05:36:58;;;;;;;;;;;;;;;26.41;38.71;93969.44;4917529;29;8787;-56
2023/03/25 05:39:36;;;;;;;;;;;;;;;26.41;39.43;93968.69;4960739;28;8806;-55
2023/03/25 05:42:03;;;;;;;;;;;;;;;26.38;38.78;93964.94;5011474;28;7023;-56
2023/03/25 05:44:29;;;;;;;;;;;;;;;26.39;38.93;93971.22;4998786;28;9158;-56
2023/03/25 05:47:12;;;;;;;;;;;;;;;26.41;39.54;93968.69;4978890;28;9232;-56
2023/03/25 05:49:59;;;;;;;;;;;;;;;26.41;39.04;93960.41;4999083;28;7242;-56
2023/03/25 05:52:33;;;;;;;;;;;;;;;26.42;39.02;93965.41;5011436;28;9374;-56
2023/03/25 05:55:35;;;;;;;;;;;;;;;26.42;39.30;93968.16;5000084;28;7209;-56
2023/03/25 05:58:11;;;;;;;;;;;;;;;26.43;38.95;93971.66;4987510;28;7145;-56
2023/03/25 06:00:39;;;;;;;;;;;;;;;26.43;39.46;93963.38;4987454;28;7330;-56
2023/03/25 06:03:12;;;;;;;;;;;;;;;26.43;39.10;93957.88;5016432;28;7159;-55
2023/03/25 06:05:43;;;;;;;;;;;;;;;26.42;39.48;93959.16;5016499;28;7269;-56
2023/03/25 06:08:15;;;;;;;;;;;;;;;26.43;39.60;93960.63;5004208;28;8744;-56
2023/03/25 06:10:53;;;;;;;;;;;;;;;26.43;38.92;93968.88;4990729;28;8619;-56
2023/03/25 06:13:38;;;;;;;;;;;;;;;26.47;39.37;93969.34;5015680;28;9712;-56
2023/03/25 06:16:19;;;;;;;;;;;;;;;26.45;39.23;93974.63;4998788;28;7096;-56
2023/03/25 06:18:55;;;;;;;;;;;;;;;26.44;39.13;93973.16;5000779;28;8691;-56
2023/03/25 06:21:53;;;;;;;;;;;;;;;26.43;39.58;93993.72;5005041;28;9360;-56
2023/03/25 06:24:56;;;;;;;;;;;;;;;26.38;39.23;93994.56;4944318;28;7099;-55
2023/03/25 06:27:43;;;;;;;;;;;;;;;26.30;39.61;94007.44;4961548;28;7238;-56
2023/03/25 06:30:23;;;;;;;;;;;;;;;26.28;39.57;94010.75;4959697;28;9063;-56
2023/03/25 06:33:23;;;;;;;;;;;;;;;26.32;39.76;94027.72;4959516;28;9221;-56
2023/03/25 06:35:53;;;;;;;;;;;;;;;26.30;39.33;94018.47;4925541;29;8745;-56
2023/03/25 06:38:33;;;;;;;;;;;;;;;26.35;40.04;94043.22;4924648;29;9214;-56
2023/03/25 06:40:58;;;;;;;;;;;;;;;26.38;39.63;94027.66;4929767;29;8117;-56
2023/03/25 06:43:27;;;;;;;;;;;;;;;26.36;39.73;94039.19;4934709;29;9357;-55
2023/03/25 06:45:53;;;;;;;;;;;;;;;26.30;39.47;94015.72;4912193;29;7262;-56
2023/03/25 06:48:19;;;;;;;;;;;;;;;26.27;39.91;94014.78;4934513;29;7216;-56
2023/03/25 06:50:55;;;;;;;;;;;;;;;26.29;39.14;94023.28;4918189;29;7354;-56
2023/03/25 06:53:35;;;;;;;;;;;;;;;26.30;40.03;94005.44;4916444;29;9299;-56
2023/03/25 06:56:20;;;;;;;;;;;;;;;26.28;39.49;94010.75;4927797;29;7278;-56
2023/03/25 06:58:48;;;;;;;;;;;;;;;26.26;39.51;94007.00;4921089;29;9162;-56
2023/03/25 07:01:24;;;;;;;;;;;;;;;26.24;39.82;93995.78;4929983;28;9156;-56
2023/03/25 07:03:50;;;;;;;;;;;;;;;26.24;40.29;94001.28;4947088;28;8694;-56
2023/03/25 07:06:20;;;;;;;;;;;;;;;26.25;40.46;94009.06;4923907;29;7095;-56
2023/03/25 07:08:54;;;;;;;;;;;;;;;26.31;40.25;93998.69;4946541;28;7057;-56
2023/03/25 07:11:27;;;;;;;;;;;;;;;26.29;39.76;93994.94;4983235;28;9433;-56
2023/03/25 07:13:54;;;;;;;;;;;;;;;26.28;40.29;93998.97;5007196;28;7152;-56
2023/03/25 07:16:26;;;;;;;;;;;;;;;26.24;40.23;94002.03;5011044;28;9192;-56
2023/03/25 07:18:56;;;;;;;;;;;;;;;26.24;39.99;94009.56;5001012;28;7248;-56
2023/03/25 07:21:25;;;;;;;;;;;;;;;26.21;40.05;94007.88;5011603;28;7596;-56
2023/03/25 07:24:10;;;;;;;;;;;;;;;26.23;40.24;94008.09;5009755;28;7044;-56
2023/03/25 07:26:38;;;;;;;;;;;;;;;26.31;40.38;94008.94;5017477;28;8066;-55
2023/03/25 07:29:10;;;;;;;;;;;;;;;26.31;40.87;94006.19;5008777;28;7165;-56
2023/03/25 07:31:46;;;;;;;;;;;;;;;26.34;40.72;93997.59;5010875;28;9142;-56
2023/03/25 07:35:04;;;;;;;;;;;;;;;26.36;40.28;93994.34;5014883;28;9003;-56
2023/03/25 07:37:53;;;;;;;;;;;;;;;26.39;40.26;93993.28;4942701;28;7363;-56
2023/03/25 07:40:30;;;;;;;;;;;;;;;26.41;39.47;93985.22;4938085;28;7291;-56
2023/03/25 07:43:16;;;;;;;;;;;;;;;26.41;39.45;93990.75;4929590;29;9365;-56
2023/03/25 07:45:56;;;;;;;;;;;;;;;26.43;39.60;93990.94;4942880;28;7085;-56
2023/03/25 07:48:31;;;;;;;;;;;;;;;26.42;39.78;93986.72;4943914;28;9305;-56
2023/03/25 07:50:57;;;;;;;;;;;;;;;26.38;39.67;93986.28;4936252;28;7294;-56
2023/03/25 07:53:37;;;;;;;;;;;;;;;26.37;39.84;93985.53;4941543;28;9250;-56
2023/03/25 07:56:06;;;;;;;;;;;;;;;26.35;39.57;93979.06;4945894;28;7035;-56
2023/03/25 07:58:32;;;;;;;;;;;;;;;26.33;39.62;93990.63;4944094;28;7487;-56
2023/03/25 08:01:07;;;;;;;;;;;;;;;26.35;40.17;93981.81;4943224;28;9061;-56
2023/03/25 08:03:37;;;;;;;;;;;;;;;26.34;39.76;94005.88;4938281;28;8938;-56
2023/03/25 08:06:08;;;;;;;;;;;;;;;26.37;39.75;94001.34;4935919;28;9911;-56
2023/03/25 08:08:35;;;;;;;;;;;;;;;26.34;40.20;93994.13;4934108;28;7051;-56
2023/03/25 08:11:01;;;;;;;;;;;;;;;26.38;39.55;93991.81;4933867;28;7133;-56
2023/03/25 08:13:28;;;;;;;;;;;;;;;26.37;39.65;93980.03;4988291;28;7435;-55
2023/03/25 08:16:00;;;;;;;;;;;;;;;26.38;40.43;93981.50;5001381;28;7006;-55
2023/03/25 08:18:26;;;;;;;;;;;;;;;26.32;40.03;93982.88;4994349;28;9030;-56
2023/03/25 08:20:52;;;;;;;;;;;;;;;26.34;40.47;93975.56;5010250;28;7251;-55
2023/03/25 08:23:21;;;;;;;;;;;;;;;26.37;40.23;93973.75;4992917;28;8799;-56
2023/03/25 08:25:49;;;;;;;;;;;;;;;26.39;39.70;93976.72;5006915;28;7283;-56
2023/03/25 08:28:25;;;;;;;;;;;;;;;26.41;39.95;93974.19;4999610;28;7297;-56
2023/03/25 08:31:20;;;;;;;;;;;;;;;26.41;40.56;93974.19;5011720;28;7321;-56
2023/03/25 08:34:07;;;;;;;;;;;;;;;26.45;40.01;93969.09;4917225;29;10388;-56
2023/03/25 08:36:43;;;;;;;;;;;;;;;26.46;40.12;93973.38;4922776;29;9454;-55
2023/03/25 08:39:10;;;;;;;;;;;;;;;26.48;39.68;93974.34;4908538;29;7111;-56
2023/03/25 08:41:37;;;;;;;;;;;;;;;26.48;40.14;93976.34;4897336;29;7198;-56
2023/03/25 08:44:04;;;;;;;;;;;;;;;26.50;40.17;93982.81;4905603;29;9303;-56
2023/03/25 08:46:32;;;;;;;;;;;;;;;26.48;39.83;93979.09;4913154;29;7345;-56
2023/03/25 08:49:01;;;;;;;;;;;;;;;26.49;39.99;93980.59;4921795;29;7301;-56
2023/03/25 08:51:27;;;;;;;;;;;;;;;26.49;40.83;93978.56;4895879;29;8536;-55
2023/03/25 08:54:11;;;;;;;;;;;;;;;26.52;40.67;93971.25;4914311;29;9128;-55
2023/03/25 08:56:56;;;;;;;;;;;;;;;26.54;40.50;93982.50;4908889;29;7066;-56
2023/03/25 08:59:22;;;;;;;;;;;;;;;26.52;40.45;93974.75;4908928;29;7232;-55
2023/03/25 09:01:48;;;;;;;;;;;;;;;26.52;39.96;93977.53;4911234;29;9140;-56
2023/03/25 09:04:24;;;;;;;;;;;;;;;26.48;40.63;93973.59;4910876;29;7626;-55
2023/03/25 09:07:02;;;;;;;;;;;;;;;26.46;40.24;93971.34;4920390;29;7451;-56
2023/03/25 09:09:45;;;;;;;;;;;;;;;26.50;40.59;93976.56;4938349;28;7229;-56
2023/03/25 09:12:19;;;;;;;;;;;;;;;26.50;40.09;93971.03;5002757;28;9070;-55
2023/03/25 09:15:17;;;;;;;;;;;;;;;26.50;40.56;93968.28;4987988;28;7513;-56
2023/03/25 09:17:44;;;;;;;;;;;;;;;26.51;40.90;93975.28;4913286;29;7424;-55
2023/03/25 09:20:17;;;;;;;;;;;;;;;26.53;40.92;93965.22;4933898;29;7047;-56
2023/03/25 09:22:47;;;;;;;;;;;;;;;26.55;39.95;93968.19;4931971;29;7031;-56
2023/03/25 09:25:15;;;;;;;;;;;;;;;26.56;40.50;93966.16;4930957;29;8937;-56
2023/03/25 09:27:41;;;;;;;;;;;;;;;26.56;40.55;93974.44;4917800;29;8795;-57
2023/03/25 09:30:18;;;;;;;;;;;;;;;26.58;40.49;93975.41;4900503;29;8707;-56
2023/03/25 09:33:18;;;;;;;;;;;;;;;26.61;40.05;93979.13;4912153;29;7359;-56
2023/03/25 09:35:55;;;;;;;;;;;;;;;26.59;40.46;93981.69;4861271;29;7049;-55
2023/03/25 09:38:40;;;;;;;;;;;;;;;26.55;40.04;93979.22;4876214;29;7221;-56
2023/03/25 09:41:50;;;;;;;;;;;;;;;26.58;40.01;93980.16;4877235;29;8492;-56
2023/03/25 09:44:51;;;;;;;;;;;;;;;26.58;40.14;93980.16;4860720;29;6989;-55
2023/03/25 09:47:46;;;;;;;;;;;;;;;26.57;39.91;93986.97;4860895;29;8725;-55
2023/03/25 09:50:16;;;;;;;;;;;;;;;26.58;40.33;93991.22;4877566;29;9054;-55
2023/03/25 09:53:02;;;;;;;;;;;;;;;26.56;40.17;94033.13;4874304;29;8918;-56
2023/03/25 09:55:39;;;;;;;;;;;;;;;26.55;39.26;93998.53;4921954;29;9063;-56
2023/03/25 09:58:41;;;;;;;;;;;;;;;26.58;40.10;93988.44;4928941;29;8980;-56
2023/03/25 10:01:21;;;;;;;;;;;;;;;26.57;40.43;93998.75;4929276;29;9234;-56
2023/03/25 10:04:00;;;;;;;;;;;;;;;26.57;40.01;93998.00;4932744;29;7244;-56
2023/03/25 10:06:31;;;;;;;;;;;;;;;26.57;39.88;93995.25;4933396;29;7896;-56
2023/03/25 10:09:29;;;;;;;;;;;;;;;26.60;39.43;94002.47;4933209;29;9061;-56
2023/03/25 10:12:16;;;;;;;;;;;;;;;26.62;39.56;93999.94;4985152;28;9415;-55
2023/03/25 10:15:04;;;;;;;;;;;;;;;26.60;39.54;93996.97;5008578;28;7278;-55
2023/03/25 10:18:04;;;;;;;;;;;;;;;26.59;40.05;94001.72;5016827;28;9025;-55
2023/03/25 10:20:38;;;;;;;;;;;;;;;26.58;39.33;94010.50;5011749;28;8681;-56
2023/03/25 10:24:04;;;;;;;;;;;;;;;26.60;42.96;93997.69;5012690;28;9229;-55
2023/03/25 10:26:53;;;;;;;;;;;;;;;26.64;40.26;93997.41;4900461;29;7314;-55
2023/03/25 10:29:54;;;;;;;;;;;;;;;26.62;39.95;94019.25;4909996;29;8952;-55
2023/03/25 10:33:03;;;;;;;;;;;;;;;26.62;39.51;94006.19;4902644;29;7174;-56
2023/03/25 10:35:46;;;;;;;;;;;;;;;26.59;39.36;94018.28;4904154;29;9149;-56
2023/03/25 10:38:44;;;;;;;;;;;;;;;26.59;39.69;94025.81;4903147;29;7453;-56
2023/03/25 10:41:38;;;;;;;;;;;;;;;26.59;39.97;94047.88;4907966;29;7319;-56
2023/03/25 10:44:09;;;;;;;;;;;;;;;26.58;40.16;94029.81;4885775;29;7091;-56
2023/03/25 10:46:57;;;;;;;;;;;;;;;26.57;39.75;94031.84;4900474;29;9163;-56
2023/03/25 10:50:00;;;;;;;;;;;;;;;26.59;39.71;94034.09;4913342;29;7274;-56
2023/03/25 10:52:36;;;;;;;;;;;;;;;26.57;39.18;94025.59;4837889;29;7477;-56
2023/03/25 10:55:27;;;;;;;;;;;;;;;26.58;39.58;94022.28;4850971;29;7068;-56
2023/03/25 10:58:06;;;;;;;;;;;;;;;26.57;39.91;94022.84;4861964;29;7156;-56
2023/03/25 11:01:09;;;;;;;;;;;;;;;26.54;39.56;94037.66;4837748;29;6998;-56
2023/03/25 11:03:50;;;;;;;;;;;;;;;26.49;40.27;94019.22;4878920;29;8318;-56
2023/03/25 11:06:33;;;;;;;;;;;;;;;26.49;40.43;94036.47;4863335;29;9472;-56
2023/03/25 11:09:27;;;;;;;;;;;;;;;26.43;40.44;94026.81;4875635;29;9404;-56
2023/03/25 11:11:53;;;;;;;;;;;;;;;26.45;40.14;94029.78;4878620;29;8713;-56
2023/03/25 11:14:52;;;;;;;;;;;;;;;26.46;41.08;94026.50;4878239;29;9543;-56
2023/03/25 11:17:25;;;;;;;;;;;;;;;26.47;40.34;94035.53;4872032;29;7435;-56
2023/03/25 11:20:16;;;;;;;;;;;;;;;26.49;40.45;94038.50;4865214;29;9100;-56
2023/03/25 11:22:50;;;;;;;;;;;;;;;26.49;41.07;94033.00;4856264;29;7135;-56
2023/03/25 11:25:54;;;;;;;;;;;;;;;26.52;40.19;94031.94;4853100;29;9352;-56
2023/03/25 11:28:42;;;;;;;;;;;;;;;26.51;40.58;94022.91;4895984;29;7067;-56
2023/03/25 11:31:29;;;;;;;;;;;;;;;26.52;41.00;94029.91;4909964;29;8222;-56
2023/03/25 11:34:40;;;;;;;;;;;;;;;26.54;40.34;94026.63;4915644;29;7271;-56
2023/03/25 11:37:21;;;;;;;;;;;;;;;26.51;40.53;94022.91;4915644;29;9107;-56
2023/03/25 11:40:05;;;;;;;;;;;;;;;26.54;40.57;94032.16;4955232;28;7150;-56
2023/03/25 11:42:39;;;;;;;;;;;;;;;26.53;40.38;94014.13;5013792;28;7120;-56
2023/03/25 11:45:33;;;;;;;;;;;;;;;26.53;40.50;94016.88;5011461;28;7344;-56
2023/03/25 11:48:29;;;;;;;;;;;;;;;26.55;40.86;94022.63;5009288;28;7458;-56
2023/03/25 11:51:00;;;;;;;;;;;;;;;26.52;40.74;94013.38;4991789;28;9056;-56
2023/03/25 11:53:55;;;;;;;;;;;;;;;26.55;40.95;94022.63;4981280;28;7254;-56
2023/03/25 11:56:30;;;;;;;;;;;;;;;26.55;40.02;94022.63;5010922;28;7289;-56
2023/03/25 11:59:39;;;;;;;;;;;;;;;26.56;40.58;94005.53;5015930;28;7200;-56
2023/03/25 12:02:19;;;;;;;;;;;;;;;26.55;40.67;93995.78;5020970;28;7936;-56
2023/03/25 12:05:20;;;;;;;;;;;;;;;26.57;40.81;94001.53;5002252;28;9036;-56
2023/03/25 12:08:18;;;;;;;;;;;;;;;26.58;40.65;94005.00;5010953;28;8846;-56
2023/03/25 12:10:50;;;;;;;;;;;;;;;26.58;40.54;94007.75;4994170;28;8318;-56
2023/03/25 12:13:54;;;;;;;;;;;;;;;26.58;40.51;94002.25;5019319;28;7264;-56
2023/03/25 12:16:23;;;;;;;;;;;;;;;26.61;40.10;94001.19;5011933;28;7244;-56
2023/03/25 12:19:05;;;;;;;;;;;;;;;26.61;40.05;93993.66;5012152;28;8706;-56
2023/03/25 12:21:45;;;;;;;;;;;;;;;26.59;39.70;94001.72;5009017;28;7337;-56
2023/03/25 12:24:38;;;;;;;;;;;;;;;26.60;39.92;93988.69;5012964;28;7270;-56
2023/03/25 12:27:30;;;;;;;;;;;;;;;26.58;39.68;93989.19;5013702;28;7250;-56
2023/03/25 12:30:29;;;;;;;;;;;;;;;26.61;39.65;93982.63;5007372;28;8095;-56
2023/03/25 12:33:21;;;;;;;;;;;;;;;26.60;40.00;93978.38;5004508;28;9378;-56
2023/03/25 12:36:05;;;;;;;;;;;;;;;26.60;39.99;93991.44;4986835;28;9000;-56
2023/03/25 12:38:53;;;;;;;;;;;;;;;26.63;39.77;93976.59;4992515;28;7444;-56
2023/03/25 12:41:46;;;;;;;;;;;;;;;26.64;39.26;93992.59;5012796;28;7268;-56
2023/03/25 12:45:00;;;;;;;;;;;;;;;26.63;39.65;94002.16;5011441;28;7056;-56
2023/03/25 12:47:38;;;;;;;;;;;;;;;26.66;39.80;94001.13;4969499;28;7269;-56
2023/03/25 12:50:23;;;;;;;;;;;;;;;26.68;39.21;94008.84;4947944;28;8865;-56
2023/03/25 12:53:36;;;;;;;;;;;;;;;26.67;39.57;94004.59;4959790;28;7117;-56
2023/03/25 12:56:02;;;;;;;;;;;;;;;26.63;39.87;94009.69;4967568;28;7278;-55
2023/03/25 12:59:11;;;;;;;;;;;;;;;26.66;39.65;94001.13;4949264;28;7634;-56
2023/03/25 13:02:08;;;;;;;;;;;;;;;26.67;39.57;93999.84;4949935;28;7344;-56
2023/03/25 13:05:05;;;;;;;;;;;;;;;26.67;39.96;94001.84;4953322;28;9015;-56
2023/03/25 13:07:51;;;;;;;;;;;;;;;26.70;39.49;93992.53;4964879;28;7338;-56
2023/03/25 13:10:41;;;;;;;;;;;;;;;26.74;39.76;93992.97;4955241;28;8729;-55
2023/03/25 13:13:18;;;;;;;;;;;;;;;26.73;39.63;94005.31;4955074;28;6990;-55
2023/03/25 13:16:01;;;;;;;;;;;;;;;26.71;39.63;94000.25;4962545;28;8970;-56
2023/03/25 13:18:33;;;;;;;;;;;;;;;26.71;39.55;94002.28;4950943;28;7384;-55
2023/03/25 13:21:07;;;;;;;;;;;;;;;26.71;39.85;94003.03;4968601;28;8710;-56
2023/03/25 13:23:36;;;;;;;;;;;;;;;26.70;39.07;94037.41;4967448;28;7039;-56
2023/03/25 13:26:13;;;;;;;;;;;;;;;26.67;39.69;94008.09;5007516;28;7167;-56
2023/03/25 13:29:01;;;;;;;;;;;;;;;26.71;39.78;94016.81;5004645;28;7280;-56
2023/03/25 13:31:42;;;;;;;;;;;;;;;26.70;39.60;94020.09;5006207;28;7273;-56
2023/03/25 13:34:30;;;;;;;;;;;;;;;26.72;39.11;94009.28;5007545;28;9122;-56
2023/03/25 13:37:16;;;;;;;;;;;;;;;26.72;39.83;94007.28;4993779;28;7114;-56
2023/03/25 13:40:06;;;;;;;;;;;;;;;26.69;39.45;94013.84;5013738;28;7181;-56
2023/03/25 13:42:51;;;;;;;;;;;;;;;26.73;39.55;94017.06;5008460;28;8397;-56
2023/03/25 13:46:03;;;;;;;;;;;;;;;26.75;39.50;94019.31;4993255;28;8768;-56
2023/03/25 13:48:49;;;;;;;;;;;;;;;26.73;39.46;94019.81;4963568;28;7408;-56
2023/03/25 13:51:19;;;;;;;;;;;;;;;26.71;39.55;94013.31;4973370;28;7030;-56
2023/03/25 13:53:45;;;;;;;;;;;;;;;26.72;39.24;94021.06;4966291;28;8083;-56
2023/03/25 13:56:37;;;;;;;;;;;;;;;26.72;40.09;94009.28;4977197;28;7516;-56
2023/03/25 13:59:27;;;;;;;;;;;;;;;26.72;39.81;94012.81;4976959;28;8883;-56
2023/03/25 14:02:29;;;;;;;;;;;;;;;26.71;39.88;94005.03;4972045;28;7039;-56
2023/03/25 14:05:35;;;;;;;;;;;;;;;26.74;39.99;93985.44;4975202;28;8632;-56